createdAt,value
2023-03-29T00:00:16.884Z,62.37
2023-03-29T00:02:48.698Z,62.18
2023-03-29T00:05:18.476Z,62.19
2023-03-29T00:07:46.255Z,61.98
2023-03-29T00:10:13.745Z,62.24
2023-03-29T00:12:42.013Z,62.11
2023-03-29T00:15:09.822Z,61.88
2023-03-29T00:17:37.359Z,62.34
2023-03-29T00:20:08.788Z,61.88
2023-03-29T00:22:42.288Z,62.17
2023-03-29T00:25:11.999Z,61.92
2023-03-29T00:27:40.095Z,61.84
2023-03-29T00:30:09.142Z,61.73
2023-03-29T00:32:38.118Z,61.71
2023-03-29T00:35:07.879Z,61.74
2023-03-29T00:37:35.829Z,61.53
2023-03-29T00:40:08.634Z,61.75
2023-03-29T00:42:36.501Z,61.51
2023-03-29T00:45:06.415Z,61.87
2023-03-29T00:48:07.622Z,61.71
2023-03-29T00:50:53.661Z,61.39
2023-03-29T00:53:29.538Z,61.34
2023-03-29T00:56:12.174Z,61.97
2023-03-29T00:59:01.507Z,61.90
2023-03-29T01:01:48.244Z,61.52
2023-03-29T01:04:37.284Z,61.52
2023-03-29T01:07:26.044Z,61.39
2023-03-29T01:09:58.597Z,61.67
2023-03-29T01:12:32.849Z,62.10
2023-03-29T01:15:05.512Z,61.79
2023-03-29T01:17:33.322Z,61.53
2023-03-29T01:20:15.482Z,61.97
2023-03-29T01:23:07.644Z,62.39
2023-03-29T01:25:35.076Z,61.77
2023-03-29T01:28:06.463Z,61.72
2023-03-29T01:30:40.943Z,62.31
2023-03-29T01:33:38.977Z,62.71
2023-03-29T01:36:27.622Z,62.56
2023-03-29T01:39:05.176Z,62.23
2023-03-29T01:41:57.386Z,62.71
2023-03-29T01:44:35.828Z,62.22
2023-03-29T01:47:19.856Z,62.44
2023-03-29T01:50:25.741Z,62.44
2023-03-29T01:52:53.237Z,61.46
2023-03-29T01:55:39.468Z,62.00
2023-03-29T01:58:10.584Z,61.69
2023-03-29T02:00:40.036Z,61.94
2023-03-29T02:03:09.795Z,62.26
2023-03-29T02:05:39.701Z,62.04
2023-03-29T02:08:10.301Z,61.82
2023-03-29T02:10:38.345Z,61.50
2023-03-29T02:13:06.298Z,61.91
2023-03-29T02:15:34.302Z,61.95
2023-03-29T02:18:04.061Z,61.88
2023-03-29T02:20:39.063Z,62.11
2023-03-29T02:23:13.822Z,62.31
2023-03-29T02:25:43.368Z,62.22
2023-03-29T02:28:11.914Z,61.92
2023-03-29T02:31:03.464Z,62.72
2023-03-29T02:33:53.559Z,62.54
2023-03-29T02:36:35.223Z,61.69
2023-03-29T02:39:06.138Z,62.16
2023-03-29T02:41:34.790Z,62.13
2023-03-29T02:44:05.453Z,62.10
2023-03-29T02:46:35.192Z,61.91
2023-03-29T02:49:05.267Z,61.83
2023-03-29T02:51:35.530Z,61.91
2023-03-29T02:54:09.722Z,62.27
2023-03-29T02:56:46.056Z,62.27
2023-03-29T02:59:14.520Z,61.86
2023-03-29T03:01:44.966Z,61.76
2023-03-29T03:04:13.473Z,61.82
2023-03-29T03:06:41.675Z,61.51
2023-03-29T03:09:11.135Z,61.42
2023-03-29T03:11:41.870Z,61.26
2023-03-29T03:14:09.712Z,61.29
2023-03-29T03:16:37.420Z,61.06
2023-03-29T03:19:07.373Z,61.24
2023-03-29T03:21:37.784Z,60.95
2023-03-29T03:24:07.854Z,60.81
2023-03-29T03:26:38.940Z,60.55
2023-03-29T03:29:08.145Z,60.86
2023-03-29T03:31:54.436Z,60.51
2023-03-29T03:34:45.007Z,60.70
2023-03-29T03:37:15.589Z,61.13
2023-03-29T03:39:43.540Z,60.89
2023-03-29T03:42:11.843Z,60.72
2023-03-29T03:44:43.267Z,60.68
2023-03-29T03:47:40.104Z,60.46
2023-03-29T03:50:28.236Z,60.69
2023-03-29T03:52:56.096Z,60.63
2023-03-29T03:55:24.244Z,60.75
2023-03-29T03:58:12.053Z,60.45
2023-03-29T04:00:39.601Z,60.44
2023-03-29T04:03:24.400Z,60.50
2023-03-29T04:05:53.671Z,60.54
2023-03-29T04:08:25.134Z,60.36
2023-03-29T04:11:11.978Z,60.54
2023-03-29T04:13:42.583Z,60.25
2023-03-29T04:16:27.795Z,60.21
2023-03-29T04:18:58.208Z,59.90
2023-03-29T04:21:27.316Z,59.73
2023-03-29T04:23:54.926Z,59.57
2023-03-29T04:26:23.209Z,59.71
2023-03-29T04:29:03.107Z,59.64
2023-03-29T04:31:38.980Z,59.78
2023-03-29T04:34:27.548Z,59.21
2023-03-29T04:36:58.842Z,59.41
2023-03-29T04:39:34.078Z,58.93
2023-03-29T04:42:05.370Z,58.86
2023-03-29T04:44:34.272Z,58.84
2023-03-29T04:47:05.232Z,58.73
2023-03-29T04:49:33.027Z,58.61
2023-03-29T04:52:01.035Z,58.49
2023-03-29T04:54:31.102Z,58.44
2023-03-29T04:56:59.040Z,58.58
2023-03-29T04:59:35.609Z,58.56
2023-03-29T05:02:09.311Z,58.80
2023-03-29T05:04:39.163Z,58.70
2023-03-29T05:07:15.439Z,58.34
2023-03-29T05:09:45.885Z,58.40
2023-03-29T05:12:13.730Z,57.87
2023-03-29T05:14:59.268Z,57.97
2023-03-29T05:17:31.888Z,58.03
2023-03-29T05:20:09.819Z,57.49
2023-03-29T05:22:38.766Z,57.51
2023-03-29T05:25:11.788Z,57.64
2023-03-29T05:27:42.676Z,57.62
2023-03-29T05:30:15.868Z,57.81
2023-03-29T05:33:10.660Z,57.56
2023-03-29T05:35:39.363Z,57.75
2023-03-29T05:38:09.070Z,57.55
2023-03-29T05:40:37.240Z,57.90
2023-03-29T05:43:43.402Z,57.34
2023-03-29T05:46:12.407Z,57.25
2023-03-29T05:48:47.581Z,57.17
2023-03-29T05:51:18.891Z,56.91
2023-03-29T05:53:46.724Z,56.90
2023-03-29T05:56:16.119Z,56.72
2023-03-29T05:58:47.342Z,56.68
2023-03-29T06:01:15.477Z,56.69
2023-03-29T06:03:57.539Z,56.40
2023-03-29T06:06:31.787Z,56.18
2023-03-29T06:09:01.484Z,56.12
2023-03-29T06:11:36.309Z,55.57
2023-03-29T06:14:24.594Z,55.45
2023-03-29T06:17:06.760Z,55.41
2023-03-29T06:19:35.320Z,55.34
2023-03-29T06:22:02.990Z,55.43
2023-03-29T06:24:33.944Z,55.09
2023-03-29T06:27:07.380Z,55.19
2023-03-29T06:29:35.425Z,55.01
2023-03-29T06:32:03.538Z,54.54
2023-03-29T06:34:57.825Z,54.79
2023-03-29T06:37:34.461Z,55.00
2023-03-29T06:40:23.061Z,55.03
2023-03-29T06:42:57.856Z,55.27
2023-03-29T06:45:44.766Z,55.16
2023-03-29T06:48:26.025Z,55.40
2023-03-29T06:50:54.704Z,55.87
2023-03-29T06:53:26.456Z,56.42
2023-03-29T06:56:01.211Z,56.81
2023-03-29T06:58:56.292Z,57.48
2023-03-29T07:01:39.209Z,57.78
2023-03-29T07:04:24.830Z,58.08
2023-03-29T07:08:00.365Z,58.49
2023-03-29T07:10:47.682Z,58.63
2023-03-29T07:13:45.941Z,58.85
2023-03-29T07:17:28.280Z,59.86
2023-03-29T07:20:29.863Z,59.17
2023-03-29T07:23:18.378Z,59.66
2023-03-29T07:25:47.491Z,60.28
2023-03-29T07:40:01.569Z,60.71
2023-03-29T07:42:46.960Z,60.74
2023-03-29T07:45:26.787Z,60.78
2023-03-29T07:48:02.218Z,60.25
2023-03-29T07:50:46.448Z,59.70
2023-03-29T07:53:14.766Z,59.61
2023-03-29T07:55:47.702Z,59.39
2023-03-29T07:58:54.328Z,59.12
2023-03-29T08:01:22.250Z,59.39
2023-03-29T08:04:13.219Z,59.19
2023-03-29T08:06:59.138Z,58.90
2023-03-29T08:09:38.983Z,59.23
2023-03-29T08:12:07.682Z,59.23
2023-03-29T08:14:38.636Z,58.98
2023-03-29T08:17:24.890Z,59.22
2023-03-29T08:20:00.506Z,59.19
2023-03-29T08:22:33.464Z,59.28
2023-03-29T08:25:12.123Z,58.69
2023-03-29T08:27:44.906Z,59.17
2023-03-29T08:30:16.549Z,59.13
2023-03-29T08:32:46.922Z,59.27
2023-03-29T08:35:18.930Z,59.11
2023-03-29T08:37:59.340Z,59.55
2023-03-29T08:40:32.082Z,59.62
2023-03-29T08:43:12.052Z,59.49
2023-03-29T08:46:46.562Z,59.83
2023-03-29T08:49:42.876Z,60.69
2023-03-29T08:52:34.529Z,61.19
2023-03-29T08:55:31.864Z,61.99
2023-03-29T08:58:27.557Z,61.90
2023-03-29T09:00:58.176Z,61.65
2023-03-29T09:03:35.171Z,62.40
2023-03-29T09:06:15.848Z,62.53
2023-03-29T09:08:49.403Z,62.97
2023-03-29T09:11:46.940Z,62.50
2023-03-29T09:14:21.917Z,62.23
2023-03-29T09:17:28.849Z,62.98
2023-03-29T09:20:19.045Z,62.90
2023-03-29T09:22:58.772Z,62.38
2023-03-29T09:25:54.013Z,62.97
2023-03-29T09:28:38.416Z,63.85
2023-03-29T09:31:23.159Z,65.51
2023-03-29T09:33:59.363Z,65.51
2023-03-29T09:37:15.920Z,67.21
2023-03-29T09:39:45.934Z,66.50
2023-03-29T09:42:19.819Z,67.34
2023-03-29T09:44:57.258Z,67.38
2023-03-29T09:47:57.235Z,67.55
2023-03-29T09:50:36.947Z,67.87
2023-03-29T09:53:08.721Z,67.96
2023-03-29T09:55:40.908Z,67.90
2023-03-29T09:58:31.292Z,68.33
2023-03-29T10:01:01.926Z,68.56
2023-03-29T10:04:13.036Z,69.30
2023-03-29T10:06:53.411Z,69.84
2023-03-29T10:10:10.633Z,70.24
2023-03-29T10:16:55.658Z,70.13
2023-03-29T10:19:28.476Z,69.77
2023-03-29T10:21:59.998Z,70.17
2023-03-29T10:24:28.452Z,69.99
2023-03-29T10:27:04.222Z,70.38
2023-03-29T10:29:43.210Z,70.58
2023-03-29T10:32:40.416Z,71.05
2023-03-29T10:35:11.924Z,70.11
2023-03-29T10:37:56.557Z,70.99
2023-03-29T10:40:35.209Z,71.12
2023-03-29T10:43:35.666Z,71.45
2023-03-29T10:46:21.509Z,71.79
2023-03-29T10:48:52.592Z,71.08
2023-03-29T10:51:20.791Z,71.11
2023-03-29T10:53:51.250Z,72.04
2023-03-29T10:56:40.720Z,72.70
2023-03-29T10:59:23.285Z,72.30
2023-03-29T11:02:09.218Z,72.10
2023-03-29T11:04:47.074Z,73.16
2023-03-29T11:07:58.609Z,73.23
2023-03-29T11:10:47.735Z,73.55
2023-03-29T11:13:40.147Z,73.54
2023-03-29T11:16:33.990Z,73.69
2023-03-29T11:19:31.979Z,73.26
2023-03-29T11:22:02.376Z,73.17
2023-03-29T11:24:54.518Z,74.32
2023-03-29T11:27:52.696Z,74.34
2023-03-29T11:30:36.257Z,74.39
2023-03-29T11:33:33.697Z,74.66
2023-03-29T11:36:16.915Z,74.45
2023-03-29T11:38:58.995Z,75.10
2023-03-29T11:41:34.600Z,75.54
2023-03-29T11:44:13.904Z,75.62
2023-03-29T11:46:50.866Z,75.51
2023-03-29T11:49:25.269Z,75.47
2023-03-29T11:51:59.749Z,75.52
2023-03-29T11:54:34.584Z,76.11
2023-03-29T11:57:14.243Z,75.97
2023-03-29T11:59:56.026Z,76.35
2023-03-29T12:02:39.930Z,75.92
2023-03-29T12:05:16.082Z,76.27
2023-03-29T12:07:52.759Z,76.27
2023-03-29T12:10:23.708Z,76.04
2023-03-29T12:13:12.112Z,75.90
2023-03-29T12:15:52.805Z,75.27
2023-03-29T12:18:27.891Z,75.70
2023-03-29T12:21:00.154Z,75.58
2023-03-29T12:23:32.903Z,75.62
2023-03-29T12:26:35.071Z,75.87
2023-03-29T12:29:30.851Z,76.29
2023-03-29T12:32:20.033Z,76.48
2023-03-29T12:35:37.975Z,77.01
2023-03-29T12:38:28.667Z,76.08
2023-03-29T12:41:16.782Z,76.90
2023-03-29T12:44:06.876Z,76.93
2023-03-29T12:46:52.462Z,76.94
2023-03-29T12:49:39.220Z,77.55
2023-03-29T12:52:38.078Z,77.42
2023-03-29T12:55:24.707Z,77.27
2023-03-29T12:58:21.831Z,77.59
2023-03-29T13:01:05.519Z,77.42
2023-03-29T13:03:57.828Z,77.02
2023-03-29T13:06:53.669Z,77.78
2023-03-29T13:09:35.398Z,76.44
2023-03-29T13:12:35.009Z,76.94
2023-03-29T13:15:06.261Z,76.65
2023-03-29T13:17:46.457Z,77.11
2023-03-29T13:20:14.262Z,76.28
2023-03-29T13:22:48.250Z,76.73
2023-03-29T13:25:19.161Z,76.75
2023-03-29T13:27:49.436Z,76.55
2023-03-29T13:30:55.320Z,76.97
2023-03-29T13:33:49.766Z,76.98
2023-03-29T13:36:39.392Z,76.82
2023-03-29T13:39:13.551Z,76.24
2023-03-29T13:41:41.202Z,76.70
2023-03-29T13:44:27.275Z,76.73
2023-03-29T13:47:12.709Z,76.79
2023-03-29T13:49:44.710Z,76.67
2023-03-29T13:52:16.529Z,76.46
2023-03-29T13:55:00.222Z,76.86
2023-03-29T13:57:59.610Z,77.26
2023-03-29T14:00:41.194Z,77.29
2023-03-29T14:03:14.985Z,77.03
2023-03-29T14:05:49.706Z,77.21
2023-03-29T14:08:25.546Z,77.13
2023-03-29T14:10:54.285Z,77.25
2023-03-29T14:13:25.626Z,77.31
2023-03-29T14:16:02.921Z,77.47
2023-03-29T14:18:37.814Z,77.33
2023-03-29T14:21:06.533Z,76.73
2023-03-29T14:23:37.534Z,76.92
2023-03-29T14:26:15.553Z,76.78
2023-03-29T14:28:47.091Z,76.67
2023-03-29T14:31:23.295Z,76.87
2023-03-29T14:33:55.549Z,77.12
2023-03-29T14:36:25.297Z,77.16
2023-03-29T14:38:59.659Z,77.11
2023-03-29T14:41:33.810Z,76.95
2023-03-29T14:44:03.188Z,76.51
2023-03-29T14:46:31.781Z,76.46
2023-03-29T14:49:00.175Z,76.39
2023-03-29T14:51:30.604Z,76.46
2023-03-29T14:54:00.343Z,76.36
2023-03-29T14:56:28.231Z,76.68
2023-03-29T14:58:56.860Z,76.79
2023-03-29T15:01:26.290Z,76.65
2023-03-29T15:03:56.758Z,76.52
2023-03-29T15:06:26.422Z,76.79
2023-03-29T15:09:05.041Z,76.85
2023-03-29T15:11:36.045Z,77.15
2023-03-29T15:14:08.981Z,77.03
2023-03-29T15:16:42.745Z,77.51
2023-03-29T15:19:17.490Z,76.99
2023-03-29T15:21:48.082Z,76.89
2023-03-29T15:24:30.526Z,77.25
2023-03-29T15:27:13.672Z,77.04
2023-03-29T15:29:42.901Z,76.85
2023-03-29T15:32:19.949Z,77.13
2023-03-29T15:34:58.777Z,77.61
2023-03-29T15:37:26.888Z,77.09
2023-03-29T15:39:54.561Z,77.32
2023-03-29T15:42:22.525Z,77.21
2023-03-29T15:44:53.833Z,77.44
2023-03-29T15:47:21.549Z,77.13
2023-03-29T15:49:49.204Z,76.93
2023-03-29T15:52:16.921Z,77.07
2023-03-29T15:54:44.489Z,77.63
2023-03-29T15:57:15.708Z,77.47
2023-03-29T15:59:44.606Z,77.83
2023-03-29T16:02:16.818Z,78.03
2023-03-29T16:04:45.648Z,77.71
2023-03-29T16:07:16.177Z,77.99
2023-03-29T16:09:46.100Z,78.11
2023-03-29T16:12:16.237Z,77.80
2023-03-29T16:14:43.834Z,78.17
2023-03-29T16:17:11.638Z,78.33
2023-03-29T16:19:39.155Z,78.46
2023-03-29T16:22:07.602Z,78.09
2023-03-29T16:24:36.447Z,77.80
2023-03-29T16:27:04.698Z,77.54
2023-03-29T16:29:32.740Z,77.63
2023-03-29T16:32:01.040Z,77.98
2023-03-29T16:34:30.633Z,77.76
2023-03-29T16:36:58.425Z,77.47
2023-03-29T16:39:26.219Z,77.34
2023-03-29T16:41:53.957Z,77.17
2023-03-29T16:44:23.598Z,77.21
2023-03-29T16:46:58.291Z,77.18
2023-03-29T16:49:26.138Z,77.35
2023-03-29T16:51:53.656Z,77.02
2023-03-29T16:54:21.443Z,77.41
2023-03-29T16:56:49.239Z,77.42
2023-03-29T16:59:16.954Z,76.99
2023-03-29T17:01:46.055Z,76.94
2023-03-29T17:04:13.727Z,77.37
2023-03-29T17:06:42.091Z,77.42
2023-03-29T17:09:10.098Z,77.10
2023-03-29T17:11:37.774Z,77.19
2023-03-29T17:14:05.252Z,77.01
2023-03-29T17:16:33.099Z,77.28
2023-03-29T17:19:00.998Z,76.95
2023-03-29T17:21:29.809Z,76.77
2023-03-29T17:23:57.371Z,76.92
2023-03-29T17:26:24.934Z,76.67
2023-03-29T17:28:52.570Z,76.65
2023-03-29T17:31:20.126Z,76.46
2023-03-29T17:33:50.582Z,76.58
2023-03-29T17:36:19.308Z,76.34
2023-03-29T17:38:48.946Z,76.66
2023-03-29T17:41:17.299Z,76.56
2023-03-29T17:43:45.351Z,76.45
2023-03-29T17:46:12.795Z,76.45
2023-03-29T17:48:40.360Z,76.97
2023-03-29T17:51:07.900Z,76.95
2023-03-29T17:53:35.470Z,76.94
2023-03-29T17:56:03.160Z,77.00
2023-03-29T17:58:31.422Z,76.81
2023-03-29T18:00:58.880Z,76.99
2023-03-29T18:03:26.603Z,76.75
2023-03-29T18:05:54.366Z,76.80
2023-03-29T18:08:22.018Z,76.65
2023-03-29T18:10:50.931Z,76.81
2023-03-29T18:13:24.622Z,76.94
2023-03-29T18:15:56.615Z,76.92
2023-03-29T18:18:25.318Z,76.88
2023-03-29T18:20:53.059Z,76.93
2023-03-29T18:23:20.627Z,76.98
2023-03-29T18:25:48.290Z,76.89
2023-03-29T18:28:15.937Z,76.76
2023-03-29T18:30:43.930Z,77.07
2023-03-29T18:33:11.411Z,77.25
2023-03-29T18:35:39.133Z,77.31
2023-03-29T18:38:06.889Z,77.18
2023-03-29T18:40:34.943Z,77.39
2023-03-29T18:43:02.860Z,77.34
2023-03-29T18:45:30.498Z,77.07
2023-03-29T18:47:58.168Z,77.13
2023-03-29T18:50:25.833Z,77.14
2023-03-29T18:52:54.066Z,77.06
2023-03-29T18:55:21.703Z,77.16
2023-03-29T18:57:49.440Z,77.17
2023-03-29T19:00:17.586Z,77.48
2023-03-29T19:02:45.264Z,77.84
2023-03-29T19:05:13.782Z,77.81
2023-03-29T19:07:41.283Z,77.67
2023-03-29T19:10:09.000Z,78.00
2023-03-29T19:12:36.813Z,78.34
2023-03-29T19:15:04.768Z,78.38
2023-03-29T19:17:32.312Z,78.50
2023-03-29T19:19:59.872Z,78.61
2023-03-29T19:22:27.399Z,78.97
2023-03-29T19:24:54.977Z,79.03
2023-03-29T19:27:22.476Z,78.64
2023-03-29T19:29:52.155Z,78.87
2023-03-29T19:32:19.855Z,79.04
2023-03-29T19:34:47.706Z,79.16
2023-03-29T19:37:17.688Z,79.22
2023-03-29T19:39:45.826Z,79.26
2023-03-29T19:42:13.631Z,79.36
2023-03-29T19:44:41.304Z,79.22
2023-03-29T19:47:08.767Z,79.30
2023-03-29T19:49:38.833Z,79.37
2023-03-29T19:52:07.482Z,79.07
2023-03-29T19:54:35.049Z,79.47
2023-03-29T19:57:02.872Z,79.62
2023-03-29T19:59:31.601Z,79.78
2023-03-29T20:01:59.451Z,79.84
2023-03-29T20:04:28.796Z,80.05
2023-03-29T20:06:57.754Z,79.93
2023-03-29T20:09:25.293Z,79.74
2023-03-29T20:11:52.745Z,79.98
2023-03-29T20:14:20.488Z,79.94
2023-03-29T20:16:50.708Z,79.98
2023-03-29T20:19:18.751Z,80.04
2023-03-29T20:21:46.375Z,80.18
2023-03-29T20:24:13.903Z,80.16
2023-03-29T20:26:41.403Z,79.86
2023-03-29T20:29:08.936Z,80.12
2023-03-29T20:31:36.588Z,79.95
2023-03-29T20:34:04.019Z,80.31
2023-03-29T20:36:33.086Z,80.35
2023-03-29T20:39:01.605Z,80.33
2023-03-29T20:41:29.334Z,80.40
2023-03-29T20:44:00.138Z,80.31
2023-03-29T20:46:35.140Z,80.23
2023-03-29T20:49:04.697Z,80.25
2023-03-29T20:51:32.280Z,80.26
2023-03-29T20:54:04.928Z,80.28
2023-03-29T20:56:34.724Z,80.39
2023-03-29T20:59:04.108Z,80.08
2023-03-29T21:01:32.820Z,79.97
2023-03-29T21:04:00.734Z,80.15
2023-03-29T21:06:28.339Z,79.55
2023-03-29T21:08:55.926Z,79.73
2023-03-29T21:11:23.812Z,79.73
2023-03-29T21:13:52.926Z,79.65
2023-03-29T21:16:20.868Z,79.93
2023-03-29T21:18:48.469Z,80.15
2023-03-29T21:21:15.923Z,79.90
2023-03-29T21:23:43.522Z,79.72
2023-03-29T21:26:12.670Z,79.95
2023-03-29T21:28:41.463Z,79.81
2023-03-29T21:31:09.946Z,79.78
2023-03-29T21:33:37.596Z,79.81
2023-03-29T21:36:05.780Z,79.70
2023-03-29T21:38:33.374Z,79.47
2023-03-29T21:41:02.424Z,79.58
2023-03-29T21:43:30.392Z,79.52
2023-03-29T21:45:57.994Z,79.62
2023-03-29T21:48:25.658Z,79.33
2023-03-29T21:50:53.164Z,79.21
2023-03-29T21:53:20.649Z,79.45
2023-03-29T21:55:49.161Z,79.66
2023-03-29T21:58:17.038Z,79.47
2023-03-29T22:00:45.155Z,78.94
2023-03-29T22:03:13.777Z,79.60
2023-03-29T22:05:42.095Z,79.34
2023-03-29T22:08:10.375Z,80.04
2023-03-29T22:10:41.424Z,80.13
2023-03-29T22:13:09.449Z,80.01
2023-03-29T22:15:39.057Z,79.63
2023-03-29T22:18:06.689Z,79.65
2023-03-29T22:20:36.958Z,79.73
2023-03-29T22:23:06.776Z,79.79
2023-03-29T22:25:36.643Z,79.84
2023-03-29T22:28:04.356Z,80.07
2023-03-29T22:30:31.828Z,79.76
2023-03-29T22:32:59.438Z,79.67
2023-03-29T22:35:28.000Z,79.64
2023-03-29T22:37:55.562Z,79.54
2023-03-29T22:40:23.026Z,79.68
2023-03-29T22:42:50.910Z,79.63
2023-03-29T22:45:18.838Z,79.50
2023-03-29T22:47:46.655Z,79.47
2023-03-29T22:50:14.170Z,79.48
2023-03-29T22:52:41.695Z,79.34
2023-03-29T22:55:09.505Z,79.05
2023-03-29T22:57:36.996Z,79.24
2023-03-29T23:00:09.254Z,79.29
2023-03-29T23:02:37.387Z,79.13
2023-03-29T23:05:05.176Z,79.15
2023-03-29T23:07:36.485Z,78.79
2023-03-29T23:10:07.718Z,78.87
2023-03-29T23:12:38.373Z,78.50
2023-03-29T23:15:08.158Z,78.59
2023-03-29T23:17:37.334Z,78.47
2023-03-29T23:20:10.914Z,78.26
2023-03-29T23:22:39.908Z,78.31
2023-03-29T23:25:07.904Z,78.28
2023-03-29T23:27:35.574Z,78.25
2023-03-29T23:30:03.418Z,78.31
2023-03-29T23:32:31.554Z,78.20
2023-03-29T23:35:00.182Z,78.42
2023-03-29T23:37:28.233Z,78.22
2023-03-29T23:39:55.934Z,78.21
2023-03-29T23:42:23.709Z,77.98
2023-03-29T23:44:51.318Z,78.04
2023-03-29T23:47:19.073Z,78.14
2023-03-29T23:49:46.950Z,78.05
2023-03-29T23:52:14.563Z,78.02
2023-03-29T23:54:42.170Z,77.49
2023-03-29T23:57:12.270Z,77.80
2023-03-29T23:59:40.256Z,77.63
